createdAt,value
2019-01-10T00:01:31.877Z,4.80
2019-01-10T00:04:01.543Z,4.28
2019-01-10T00:06:30.926Z,4.33
2019-01-10T00:09:00.245Z,4.42
2019-01-10T00:11:29.571Z,4.95
2019-01-10T00:13:58.892Z,5.17
2019-01-10T00:16:28.174Z,4.85
2019-01-10T00:18:57.917Z,4.53
2019-01-10T00:21:27.203Z,4.80
2019-01-10T00:23:56.513Z,4.75
2019-01-10T00:26:25.840Z,5.03
2019-01-10T00:28:55.302Z,5.30
2019-01-10T00:31:24.657Z,4.97
2019-01-10T00:33:54.003Z,5.08
2019-01-10T00:36:23.375Z,5.28
2019-01-10T00:38:52.651Z,4.62
2019-01-10T00:41:21.955Z,4.80
2019-01-10T00:43:51.299Z,4.50
2019-01-10T00:46:20.604Z,4.87
2019-01-10T00:48:49.889Z,4.80
2019-01-10T00:51:19.190Z,4.95
2019-01-10T00:53:48.470Z,4.58
2019-01-10T00:56:17.862Z,5.22
2019-01-10T00:58:47.168Z,4.35
2019-01-10T01:01:16.455Z,4.53
2019-01-10T01:03:45.749Z,4.95
2019-01-10T01:06:15.736Z,4.25
2019-01-10T01:08:45.175Z,4.30
2019-01-10T01:11:14.687Z,4.33
2019-01-10T01:13:43.975Z,5.08
2019-01-10T01:16:13.272Z,4.85
2019-01-10T01:18:42.565Z,5.17
2019-01-10T01:21:12.371Z,4.55
2019-01-10T01:23:41.679Z,4.67
2019-01-10T01:26:11.272Z,4.90
2019-01-10T01:28:40.580Z,5.15
2019-01-10T01:31:09.963Z,4.80
2019-01-10T01:33:39.240Z,4.90
2019-01-10T01:36:08.552Z,4.50
2019-01-10T01:38:37.941Z,5.12
2019-01-10T01:41:07.221Z,4.60
2019-01-10T01:43:36.528Z,4.90
2019-01-10T01:46:07.787Z,4.70
2019-01-10T01:48:37.002Z,5.12
2019-01-10T01:51:06.308Z,5.20
2019-01-10T01:53:35.836Z,5.12
2019-01-10T01:56:07.288Z,4.72
2019-01-10T01:58:38.112Z,4.97
2019-01-10T02:01:10.634Z,4.95
2019-01-10T02:03:39.940Z,4.70
2019-01-10T02:06:09.296Z,5.33
2019-01-10T02:08:38.604Z,4.87
2019-01-10T02:11:09.923Z,4.80
2019-01-10T02:13:40.544Z,5.55
2019-01-10T02:16:11.208Z,4.87
2019-01-10T02:18:42.015Z,5.03
2019-01-10T02:21:12.320Z,4.65
2019-01-10T02:23:42.773Z,5.22
2019-01-10T02:26:13.431Z,5.20
2019-01-10T02:28:43.851Z,5.00
2019-01-10T02:31:14.571Z,5.28
2019-01-10T02:33:45.416Z,5.15
2019-01-10T02:36:15.737Z,5.83
2019-01-10T02:38:46.080Z,4.70
2019-01-10T02:41:16.872Z,4.65
2019-01-10T02:43:47.420Z,5.15
2019-01-10T02:46:18.241Z,5.53
2019-01-10T02:48:48.512Z,5.60
2019-01-10T02:51:19.011Z,5.33
2019-01-10T02:53:49.293Z,5.50
2019-01-10T02:56:19.855Z,5.45
2019-01-10T02:58:50.604Z,5.45
2019-01-10T03:01:20.872Z,5.53
2019-01-10T03:03:51.345Z,5.25
2019-01-10T03:06:22.043Z,5.67
2019-01-10T03:08:52.424Z,5.37
2019-01-10T03:11:22.879Z,5.92
2019-01-10T03:13:52.934Z,5.78
2019-01-10T03:16:23.929Z,5.22
2019-01-10T03:18:54.134Z,5.30
2019-01-10T03:21:24.564Z,5.35
2019-01-10T03:23:56.243Z,5.60
2019-01-10T03:26:28.827Z,5.70
2019-01-10T03:28:58.698Z,5.72
2019-01-10T03:31:29.370Z,6.03
2019-01-10T03:34:00.148Z,6.03
2019-01-10T03:36:30.851Z,5.67
2019-01-10T03:39:01.328Z,5.70
2019-01-10T03:41:31.953Z,6.83
2019-01-10T03:44:02.677Z,5.95
2019-01-10T03:46:33.087Z,6.03
2019-01-10T03:49:03.707Z,5.70
2019-01-10T03:51:34.381Z,6.08
2019-01-10T03:54:04.961Z,6.10
2019-01-10T03:56:35.631Z,6.22
2019-01-10T03:59:06.852Z,6.33
2019-01-10T04:01:38.337Z,5.78
2019-01-10T04:04:09.151Z,6.15
2019-01-10T04:06:40.068Z,6.20
2019-01-10T04:09:09.479Z,6.05
2019-01-10T04:11:38.797Z,5.87
2019-01-10T04:14:09.504Z,6.00
2019-01-10T04:16:39.826Z,5.83
2019-01-10T04:19:10.278Z,6.30
2019-01-10T04:21:40.815Z,5.87
2019-01-10T04:24:11.249Z,6.08
2019-01-10T04:26:41.569Z,5.72
2019-01-10T04:29:12.255Z,6.62
2019-01-10T04:31:42.308Z,5.97
2019-01-10T04:34:11.628Z,5.83
2019-01-10T04:36:40.918Z,5.70
2019-01-10T04:39:10.233Z,5.72
2019-01-10T04:41:39.524Z,6.78
2019-01-10T04:44:08.854Z,6.37
2019-01-10T04:46:38.170Z,7.35
2019-01-10T04:49:07.495Z,6.35
2019-01-10T04:51:36.783Z,6.47
2019-01-10T04:54:06.243Z,6.33
2019-01-10T04:56:35.562Z,6.55
2019-01-10T04:59:05.145Z,6.03
2019-01-10T05:01:34.433Z,6.75
2019-01-10T05:04:04.088Z,6.40
2019-01-10T05:06:33.415Z,5.80
2019-01-10T05:09:02.779Z,6.30
2019-01-10T05:11:32.115Z,5.85
2019-01-10T05:14:01.385Z,6.03
2019-01-10T05:16:30.705Z,5.67
2019-01-10T05:19:00.000Z,5.87
2019-01-10T05:21:29.390Z,13.78
2019-01-10T05:23:58.716Z,5.70
2019-01-10T05:26:28.211Z,5.33
2019-01-10T05:28:57.520Z,5.90
2019-01-10T05:31:26.979Z,5.62
2019-01-10T05:33:56.301Z,6.15
2019-01-10T05:36:25.622Z,5.65
2019-01-10T05:38:55.144Z,5.92
2019-01-10T05:41:24.462Z,5.95
2019-01-10T05:43:53.753Z,5.03
2019-01-10T05:46:23.066Z,5.62
2019-01-10T05:48:52.395Z,5.35
2019-01-10T05:51:21.763Z,5.12
2019-01-10T05:53:51.076Z,5.03
2019-01-10T05:56:20.355Z,4.97
2019-01-10T05:58:49.667Z,5.42
2019-01-10T06:01:18.990Z,13.95
2019-01-10T06:03:53.138Z,6.60
2019-01-10T06:06:19.365Z,5.50
2019-01-10T06:08:48.698Z,5.58
2019-01-10T06:11:17.978Z,5.85
2019-01-10T06:13:47.302Z,6.60
2019-01-10T06:16:16.590Z,5.50
2019-01-10T06:18:45.981Z,6.20
2019-01-10T06:21:15.263Z,5.72
2019-01-10T06:23:44.585Z,5.65
2019-01-10T06:26:13.904Z,5.87
2019-01-10T06:28:45.301Z,5.92
2019-01-10T06:31:14.205Z,5.80
2019-01-10T06:33:43.528Z,5.97
2019-01-10T06:36:12.854Z,5.97
2019-01-10T06:38:42.168Z,6.42
2019-01-10T06:41:11.971Z,6.37
2019-01-10T06:43:41.257Z,5.92
2019-01-10T06:46:10.572Z,7.05
2019-01-10T06:48:39.885Z,6.67
2019-01-10T06:51:09.291Z,6.90
2019-01-10T06:53:38.591Z,6.25
2019-01-10T06:56:08.024Z,27.90
2019-01-10T06:58:37.359Z,6.62
2019-01-10T07:01:06.772Z,11.08
2019-01-10T07:03:36.063Z,7.62
2019-01-10T07:06:05.445Z,6.42
2019-01-10T07:08:34.763Z,6.70
2019-01-10T07:11:04.142Z,7.15
2019-01-10T07:13:33.825Z,7.10
2019-01-10T07:16:03.160Z,6.97
2019-01-10T07:18:32.701Z,7.45
2019-01-10T07:21:02.213Z,7.53
2019-01-10T07:23:31.492Z,6.85
2019-01-10T07:26:00.910Z,7.58
2019-01-10T07:28:30.382Z,7.62
2019-01-10T07:31:00.152Z,8.28
2019-01-10T07:33:29.465Z,7.90
2019-01-10T07:35:59.126Z,7.35
2019-01-10T07:38:28.861Z,8.10
2019-01-10T07:40:58.242Z,17.82
2019-01-10T07:43:27.617Z,9.00
2019-01-10T07:46:00.158Z,7.55
2019-01-10T07:48:29.490Z,7.30
2019-01-10T07:50:58.778Z,7.50
2019-01-10T07:53:28.177Z,7.12
2019-01-10T07:55:57.451Z,7.10
2019-01-10T07:58:26.786Z,7.83
2019-01-10T08:00:56.104Z,7.15
2019-01-10T08:03:25.404Z,7.00
2019-01-10T08:05:54.704Z,7.62
2019-01-10T08:08:23.996Z,7.45
2019-01-10T08:10:53.307Z,10.03
2019-01-10T08:13:22.598Z,7.92
2019-01-10T08:15:51.920Z,7.12
2019-01-10T08:18:21.235Z,8.10
2019-01-10T08:20:50.925Z,7.62
2019-01-10T08:23:20.234Z,7.62
2019-01-10T08:25:49.528Z,7.47
2019-01-10T08:28:18.868Z,8.60
2019-01-10T08:30:48.306Z,7.87
2019-01-10T08:33:18.002Z,7.08
2019-01-10T08:35:47.658Z,7.33
2019-01-10T08:38:17.007Z,7.62
2019-01-10T08:40:46.303Z,7.97
2019-01-10T08:43:15.633Z,7.62
2019-01-10T08:45:44.956Z,7.45
2019-01-10T08:48:14.936Z,7.22
2019-01-10T08:50:44.448Z,7.22
2019-01-10T08:53:13.840Z,7.50
2019-01-10T08:55:43.123Z,7.30
2019-01-10T08:58:12.448Z,7.50
2019-01-10T09:00:42.140Z,7.35
2019-01-10T09:03:11.454Z,7.50
2019-01-10T09:05:40.767Z,8.08
2019-01-10T09:08:10.126Z,7.53
2019-01-10T09:10:40.563Z,6.62
2019-01-10T09:13:10.389Z,7.70
2019-01-10T09:15:39.707Z,7.20
2019-01-10T09:18:09.445Z,6.75
2019-01-10T09:20:38.771Z,7.30
2019-01-10T09:23:08.063Z,7.35
2019-01-10T09:25:37.386Z,7.67
2019-01-10T09:28:06.686Z,7.03
2019-01-10T09:30:36.009Z,8.10
2019-01-10T09:33:06.444Z,7.37
2019-01-10T09:35:35.772Z,7.75
2019-01-10T09:38:05.332Z,7.70
2019-01-10T09:40:34.661Z,8.15
2019-01-10T09:43:04.141Z,8.00
2019-01-10T09:45:33.608Z,8.63
2019-01-10T09:48:03.207Z,9.05
2019-01-10T09:50:32.524Z,9.40
2019-01-10T09:53:02.010Z,8.68
2019-01-10T09:55:31.375Z,8.75
2019-01-10T09:58:00.665Z,8.58
2019-01-10T10:00:30.657Z,8.90
2019-01-10T10:03:00.340Z,9.00
2019-01-10T10:05:29.971Z,9.45
2019-01-10T10:07:59.292Z,10.18
2019-01-10T10:10:29.023Z,9.95
2019-01-10T10:12:58.358Z,10.23
2019-01-10T10:15:27.656Z,10.03
2019-01-10T10:17:56.988Z,10.63
2019-01-10T10:20:26.847Z,9.90
2019-01-10T10:22:56.158Z,10.18
2019-01-10T10:25:26.140Z,9.50
2019-01-10T10:27:55.842Z,9.60
2019-01-10T10:30:25.808Z,10.53
2019-01-10T10:32:55.202Z,11.83
2019-01-10T10:35:25.152Z,9.25
2019-01-10T10:37:54.527Z,10.43
2019-01-10T10:40:23.952Z,9.23
2019-01-10T10:42:53.624Z,9.08
2019-01-10T10:45:23.351Z,8.50
2019-01-10T10:47:52.737Z,8.43
2019-01-10T10:50:25.039Z,8.67
2019-01-10T10:52:54.340Z,8.87
2019-01-10T10:55:23.722Z,7.97
2019-01-10T10:57:53.995Z,7.83
2019-01-10T11:00:28.576Z,8.23
2019-01-10T11:02:58.416Z,7.70
2019-01-10T11:05:27.983Z,7.83
2019-01-10T11:07:57.360Z,7.30
2019-01-10T11:10:26.768Z,7.07
2019-01-10T11:12:56.194Z,7.63
2019-01-10T11:15:25.783Z,7.60
2019-01-10T11:17:55.456Z,10.17
2019-01-10T11:20:25.012Z,7.30
2019-01-10T11:22:54.605Z,8.37
2019-01-10T11:25:24.788Z,7.50
2019-01-10T11:27:54.818Z,7.70
2019-01-10T11:30:24.282Z,7.80
2019-01-10T11:32:53.995Z,7.77
2019-01-10T11:35:23.866Z,7.80
2019-01-10T11:37:53.267Z,7.60
2019-01-10T11:40:23.370Z,7.40
2019-01-10T11:42:52.791Z,6.77
2019-01-10T11:45:23.642Z,7.17
2019-01-10T11:47:52.946Z,7.50
2019-01-10T11:50:22.399Z,6.80
2019-01-10T11:52:51.755Z,6.97
2019-01-10T11:55:21.593Z,7.90
2019-01-10T11:57:51.151Z,7.30
2019-01-10T12:00:23.479Z,7.10
2019-01-10T12:02:53.130Z,6.40
2019-01-10T12:05:22.515Z,6.57
2019-01-10T12:07:51.882Z,6.53
2019-01-10T12:10:21.547Z,6.77
2019-01-10T12:12:51.009Z,6.53
2019-01-10T12:15:20.481Z,7.07
2019-01-10T12:17:49.782Z,7.10
2019-01-10T12:20:20.103Z,7.00
2019-01-10T12:22:50.092Z,6.80
2019-01-10T12:25:20.180Z,6.30
2019-01-10T12:27:49.824Z,5.90
2019-01-10T12:30:24.202Z,5.47
2019-01-10T12:32:53.889Z,6.30
2019-01-10T12:35:24.833Z,5.63
2019-01-10T12:37:54.507Z,6.30
2019-01-10T12:40:23.821Z,5.87
2019-01-10T12:42:53.194Z,5.87
2019-01-10T12:45:22.614Z,5.70
2019-01-10T12:47:52.194Z,6.27
2019-01-10T12:50:29.256Z,5.70
2019-01-10T12:52:58.560Z,6.47
2019-01-10T12:55:28.358Z,5.80
2019-01-10T12:57:57.751Z,5.67
2019-01-10T13:00:27.105Z,5.60
2019-01-10T13:02:57.244Z,5.50
2019-01-10T13:05:26.858Z,5.57
2019-01-10T13:08:03.339Z,5.43
2019-01-10T13:10:27.195Z,5.90
2019-01-10T13:12:56.504Z,6.23
2019-01-10T13:15:26.544Z,6.93
2019-01-10T13:17:55.836Z,8.23
2019-01-10T13:20:25.574Z,9.43
2019-01-10T13:22:54.956Z,9.53
2019-01-10T13:25:24.247Z,9.77
2019-01-10T13:27:53.834Z,11.27
2019-01-10T13:30:24.690Z,11.13
2019-01-10T13:32:54.724Z,10.00
2019-01-10T13:35:24.483Z,9.28
2019-01-10T13:37:54.110Z,10.00
2019-01-10T13:40:24.344Z,10.00
2019-01-10T13:42:54.111Z,9.55
2019-01-10T13:45:23.991Z,9.30
2019-01-10T13:47:54.070Z,10.58
2019-01-10T13:50:25.695Z,10.47
2019-01-10T13:52:55.609Z,10.90
2019-01-10T13:55:25.315Z,10.10
2019-01-10T13:57:55.151Z,10.80
2019-01-10T14:00:32.168Z,10.50
2019-01-10T14:03:00.230Z,11.20
2019-01-10T14:05:30.401Z,10.00
2019-01-10T14:08:00.184Z,9.83
2019-01-10T14:10:30.276Z,8.73
2019-01-10T14:12:59.743Z,8.28
2019-01-10T14:15:30.856Z,8.15
2019-01-10T14:18:00.257Z,8.67
2019-01-10T14:20:29.625Z,8.25
2019-01-10T14:22:59.223Z,8.55
2019-01-10T14:25:29.052Z,9.55
2019-01-10T14:27:59.848Z,9.13
2019-01-10T14:30:32.353Z,9.35
2019-01-10T14:33:02.579Z,8.93
2019-01-10T14:35:32.230Z,9.85
2019-01-10T14:38:01.625Z,9.25
2019-01-10T14:40:32.082Z,9.90
2019-01-10T14:43:01.405Z,10.18
2019-01-10T14:45:31.248Z,10.18
2019-01-10T14:48:02.074Z,10.40
2019-01-10T14:50:31.570Z,10.82
2019-01-10T14:53:01.196Z,10.80
2019-01-10T14:55:30.571Z,10.60
2019-01-10T14:57:59.981Z,10.75
2019-01-10T15:00:29.281Z,11.25
2019-01-10T15:02:58.750Z,12.00
2019-01-10T15:05:34.151Z,12.85
2019-01-10T15:07:59.148Z,11.50
2019-01-10T15:10:28.441Z,12.23
2019-01-10T15:12:57.773Z,11.90
2019-01-10T15:15:27.181Z,11.73
2019-01-10T15:17:56.546Z,11.15
2019-01-10T15:20:28.434Z,12.23
2019-01-10T15:22:58.405Z,11.50
2019-01-10T15:25:27.796Z,12.63
2019-01-10T15:27:57.255Z,12.15
2019-01-10T15:30:27.621Z,13.00
2019-01-10T15:32:57.079Z,12.30
2019-01-10T15:35:26.667Z,12.63
2019-01-10T15:37:56.055Z,12.68
2019-01-10T15:40:30.411Z,12.85
2019-01-10T15:42:59.802Z,14.00
2019-01-10T15:45:29.413Z,14.68
2019-01-10T15:47:58.782Z,14.90
2019-01-10T15:50:28.119Z,17.20
2019-01-10T15:52:57.482Z,14.95
2019-01-10T15:55:26.955Z,21.02
2019-01-10T15:57:56.280Z,15.70
2019-01-10T16:00:25.660Z,16.32
2019-01-10T16:02:55.035Z,16.57
2019-01-10T16:05:24.377Z,19.67
2019-01-10T16:07:53.756Z,16.60
2019-01-10T16:10:23.131Z,19.90
2019-01-10T16:12:52.543Z,18.35
2019-01-10T16:15:25.265Z,20.75
2019-01-10T16:17:54.853Z,18.82
2019-01-10T16:20:24.399Z,20.15
2019-01-10T16:22:54.270Z,18.25
2019-01-10T16:25:23.613Z,17.48
2019-01-10T16:27:52.925Z,16.20
2019-01-10T16:30:25.312Z,15.03
2019-01-10T16:32:54.728Z,15.18
2019-01-10T16:35:24.118Z,15.05
2019-01-10T16:37:53.520Z,16.10
2019-01-10T16:40:23.670Z,15.75
2019-01-10T16:42:53.430Z,29.17
2019-01-10T16:45:28.261Z,17.80
2019-01-10T16:47:57.576Z,18.07
2019-01-10T16:50:26.911Z,17.17
2019-01-10T16:52:56.276Z,16.35
2019-01-10T16:55:25.677Z,15.48
2019-01-10T16:57:54.971Z,16.42
2019-01-10T17:00:30.185Z,16.12
2019-01-10T17:02:59.820Z,16.32
2019-01-10T17:05:29.219Z,18.42
2019-01-10T17:07:59.210Z,18.37
2019-01-10T17:10:28.528Z,17.23
2019-01-10T17:12:57.906Z,18.12
2019-01-10T17:15:27.312Z,17.85
2019-01-10T17:17:56.611Z,15.60
2019-01-10T17:20:26.776Z,15.35
2019-01-10T17:22:56.071Z,14.38
2019-01-10T17:25:25.474Z,14.55
2019-01-10T17:27:54.876Z,13.30
2019-01-10T17:30:26.412Z,13.98
2019-01-10T17:32:55.822Z,13.53
2019-01-10T17:35:30.381Z,14.23
2019-01-10T17:37:59.985Z,13.55
2019-01-10T17:40:29.555Z,14.35
2019-01-10T17:42:59.345Z,13.58
2019-01-10T17:45:31.328Z,12.53
2019-01-10T17:48:00.652Z,13.58
2019-01-10T17:50:30.114Z,12.33
2019-01-10T17:52:59.491Z,12.30
2019-01-10T17:55:28.808Z,12.05
2019-01-10T17:57:58.200Z,12.57
2019-01-10T18:00:29.909Z,12.47
2019-01-10T18:02:59.243Z,12.18
2019-01-10T18:05:28.775Z,12.18
2019-01-10T18:07:58.188Z,13.75
2019-01-10T18:10:28.025Z,12.53
2019-01-10T18:12:57.419Z,12.82
2019-01-10T18:15:27.345Z,12.47
2019-01-10T18:17:56.709Z,11.78
2019-01-10T18:20:33.234Z,12.20
2019-01-10T18:23:02.649Z,12.13
2019-01-10T18:25:32.122Z,11.85
2019-01-10T18:28:01.661Z,11.60
2019-01-10T18:30:32.103Z,12.33
2019-01-10T18:33:01.502Z,11.47
2019-01-10T18:35:31.063Z,11.28
2019-01-10T18:38:00.465Z,12.45
2019-01-10T18:40:29.938Z,12.37
2019-01-10T18:42:59.251Z,12.75
2019-01-10T18:45:31.031Z,11.68
2019-01-10T18:48:00.425Z,12.47
2019-01-10T18:50:29.868Z,13.13
2019-01-10T18:52:59.469Z,11.95
2019-01-10T18:55:28.994Z,12.65
2019-01-10T18:57:58.851Z,13.50
2019-01-10T19:00:29.330Z,13.28
2019-01-10T19:02:59.588Z,13.20
2019-01-10T19:05:29.006Z,14.98
2019-01-10T19:07:58.659Z,16.20
2019-01-10T19:10:28.063Z,16.50
2019-01-10T19:12:57.394Z,15.00
2019-01-10T19:15:26.835Z,16.42
2019-01-10T19:17:56.158Z,16.55
2019-01-10T19:20:27.407Z,16.27
2019-01-10T19:22:57.803Z,14.70
2019-01-10T19:25:27.143Z,15.80
2019-01-10T19:27:56.496Z,13.58
2019-01-10T19:30:28.478Z,12.55
2019-01-10T19:32:58.048Z,11.65
2019-01-10T19:35:27.379Z,11.90
2019-01-10T19:37:56.755Z,10.93
2019-01-10T19:40:26.102Z,10.45
2019-01-10T19:42:55.592Z,11.10
2019-01-10T19:45:25.127Z,9.78
2019-01-10T19:47:54.455Z,10.13
2019-01-10T19:50:25.503Z,9.65
2019-01-10T19:52:55.454Z,9.58
2019-01-10T19:55:24.753Z,9.65
2019-01-10T19:57:54.079Z,9.18
2019-01-10T20:00:29.744Z,8.90
2019-01-10T20:02:59.351Z,9.18
2019-01-10T20:05:28.808Z,9.53
2019-01-10T20:07:58.381Z,8.90
2019-01-10T20:10:27.843Z,9.48
2019-01-10T20:12:57.224Z,9.95
2019-01-10T20:15:26.623Z,9.85
2019-01-10T20:17:57.134Z,9.80
2019-01-10T20:20:29.394Z,10.40
2019-01-10T20:22:58.974Z,9.23
2019-01-10T20:25:28.369Z,10.93
2019-01-10T20:27:57.700Z,9.50
2019-01-10T20:30:26.996Z,9.28
2019-01-10T20:32:56.366Z,10.70
2019-01-10T20:35:25.757Z,9.73
2019-01-10T20:37:55.041Z,9.35
2019-01-10T20:40:24.513Z,10.18
2019-01-10T20:42:53.817Z,10.03
2019-01-10T20:45:23.144Z,9.78
2019-01-10T20:47:52.478Z,10.63
2019-01-10T20:50:21.942Z,11.30
2019-01-10T20:52:51.275Z,10.80
2019-01-10T20:55:20.766Z,9.35
2019-01-10T20:57:50.164Z,10.60
2019-01-10T21:00:22.112Z,10.40
2019-01-10T21:02:52.035Z,10.93
2019-01-10T21:05:21.465Z,10.65
2019-01-10T21:07:50.926Z,10.70
2019-01-10T21:10:22.210Z,10.75
2019-01-10T21:12:52.098Z,11.40
2019-01-10T21:15:24.045Z,10.50
2019-01-10T21:17:53.505Z,10.50
2019-01-10T21:20:22.899Z,37.00
2019-01-10T21:22:52.655Z,32.95
2019-01-10T21:25:22.523Z,24.40
2019-01-10T21:27:51.900Z,11.10
2019-01-10T21:30:23.570Z,10.58
2019-01-10T21:32:52.979Z,10.93
2019-01-10T21:35:22.428Z,10.95
2019-01-10T21:37:51.878Z,10.90
2019-01-10T21:40:23.741Z,11.10
2019-01-10T21:42:53.973Z,10.93
2019-01-10T21:45:23.839Z,11.50
2019-01-10T21:47:53.154Z,12.43
2019-01-10T21:50:25.109Z,11.22
2019-01-10T21:52:54.793Z,10.82
2019-01-10T21:55:24.153Z,10.58
2019-01-10T21:57:53.631Z,10.15
2019-01-10T22:00:28.764Z,10.78
2019-01-10T22:02:59.035Z,10.13
2019-01-10T22:05:28.372Z,10.93
2019-01-10T22:07:57.699Z,10.98
2019-01-10T22:10:28.470Z,10.93
2019-01-10T22:12:57.896Z,10.73
2019-01-10T22:15:27.153Z,11.63
2019-01-10T22:17:56.495Z,10.57
2019-01-10T22:20:26.701Z,10.70
2019-01-10T22:22:56.064Z,11.65
2019-01-10T22:25:25.425Z,12.00
2019-01-10T22:27:55.544Z,11.53
2019-01-10T22:30:24.861Z,11.17
2019-01-10T22:32:54.287Z,12.30
2019-01-10T22:35:23.821Z,12.13
2019-01-10T22:37:53.472Z,12.75
2019-01-10T22:40:23.848Z,12.20
2019-01-10T22:42:53.508Z,11.80
2019-01-10T22:45:23.874Z,11.33
2019-01-10T22:47:53.954Z,12.05
2019-01-10T22:50:23.920Z,12.20
2019-01-10T22:52:53.712Z,12.60
2019-01-10T22:55:23.025Z,12.05
2019-01-10T22:57:52.671Z,12.50
2019-01-10T23:01:01.133Z,12.40
2019-01-10T23:03:34.063Z,12.90
2019-01-10T23:06:03.466Z,12.18
2019-01-10T23:08:35.956Z,12.77
2019-01-10T23:11:05.837Z,13.38
2019-01-10T23:13:35.143Z,13.38
2019-01-10T23:16:04.884Z,13.13
2019-01-10T23:18:38.393Z,12.93
2019-01-10T23:21:07.859Z,12.20
2019-01-10T23:23:37.173Z,12.25
2019-01-10T23:26:06.487Z,12.03
2019-01-10T23:28:41.128Z,11.68
2019-01-10T23:31:13.505Z,13.28
2019-01-10T23:33:42.844Z,13.30
2019-01-10T23:36:12.149Z,14.23
2019-01-10T23:38:41.802Z,13.48
2019-01-10T23:41:11.110Z,13.00
2019-01-10T23:43:40.427Z,12.78
2019-01-10T23:46:10.597Z,13.48
2019-01-10T23:48:39.917Z,26.15
2019-01-10T23:51:09.224Z,15.30
2019-01-10T23:53:38.548Z,13.53
2019-01-10T23:56:07.883Z,13.10
2019-01-10T23:58:37.216Z,13.95
